Time;durP1;ratioP1;P1;durP2;ratioP2;P2;SDS_P1;SDS_P2;PMS_P1;PMS_P2;Temp;Humidity;BMP_temperature;BMP_pressure;BME280_temperature;BME280_humidity;BME280_pressure;Samples;Min_cycle;Max_cycle;Signal;HPM_P1;HPM_P2
2021/11/25 00:01:58;;;;;;;15.88;11.48;;;;;;;12.75;43.38;102164.63;5053398;28;20025;-67
2021/11/25 00:04:24;;;;;;;15.07;11.98;;;;;;;12.74;43.48;102163.81;5053560;28;20037;-67
2021/11/25 00:06:50;;;;;;;20.85;15.20;;;;;;;12.73;43.47;102175.88;5053566;28;20056;-67
2021/11/25 00:09:15;;;;;;;19.45;13.52;;;;;;;12.75;43.28;102157.19;5053589;28;20098;-67
2021/11/25 00:11:42;;;;;;;22.33;14.80;;;;;;;12.77;43.35;102167.88;5053477;28;20120;-67
2021/11/25 00:14:07;;;;;;;19.67;13.55;;;;;;;12.73;43.37;102164.91;5053398;28;20043;-67
2021/11/25 00:16:33;;;;;;;17.67;12.43;;;;;;;12.71;43.58;102167.16;5053393;28;20029;-67
2021/11/25 00:18:58;;;;;;;13.75;9.80;;;;;;;12.73;43.33;102167.66;5053453;28;20029;-67
2021/11/25 00:21:25;;;;;;;16.67;9.57;;;;;;;12.72;43.23;102163.28;5053638;28;20032;-67
2021/11/25 00:23:51;;;;;;;15.15;8.30;;;;;;;12.66;43.41;102156.22;5053190;28;20053;-67
2021/11/25 00:26:17;;;;;;;14.77;8.00;;;;;;;12.69;43.22;102163.03;5053263;28;20048;-67
2021/11/25 00:28:43;;;;;;;12.88;7.20;;;;;;;12.70;43.23;102157.28;5053257;28;20061;-68
2021/11/25 00:31:09;;;;;;;16.70;6.82;;;;;;;12.65;43.45;102157.34;5035545;28;20024;-67
2021/11/25 00:33:35;;;;;;;9.30;4.18;;;;;;;12.62;43.48;102154.34;5035360;28;20439;-67
2021/11/25 00:36:01;;;;;;;11.57;3.92;;;;;;;12.61;43.48;102149.97;5035274;28;20033;-67
2021/11/25 00:38:27;;;;;;;10.63;3.60;;;;;;;12.54;43.61;102150.31;5053312;28;20029;-67
2021/11/25 00:40:53;;;;;;;10.80;4.53;;;;;;;12.56;43.52;102161.03;5053072;28;20027;-67
2021/11/25 00:43:18;;;;;;;11.18;4.22;;;;;;;12.58;43.70;102154.13;5052860;28;20029;-67
2021/11/25 00:45:44;;;;;;;12.57;4.78;;;;;;;12.64;43.47;102154.91;5052686;28;20151;-67
2021/11/25 00:48:10;;;;;;;10.85;3.65;;;;;;;12.70;43.54;102151.00;5052922;28;20071;-67
2021/11/25 00:50:35;;;;;;;20.27;6.40;;;;;;;12.58;43.63;102158.81;5034989;28;20032;-67
2021/11/25 00:53:01;;;;;;;9.27;6.18;;;;;;;12.62;43.51;102162.56;5052778;28;20048;-68
2021/11/25 00:55:27;;;;;;;15.25;8.32;;;;;;;12.41;44.21;102156.53;5034915;28;20025;-67
2021/11/25 00:57:52;;;;;;;18.65;10.32;;;;;;;12.47;44.02;102153.44;5052767;28;20100;-67
2021/11/25 01:00:21;;;;;;;22.48;13.80;;;;;;;12.53;43.94;102159.66;5052926;28;20024;-67
2021/11/25 01:02:48;;;;;;;18.17;9.98;;;;;;;12.59;43.64;102163.97;5052632;28;20433;-67
2021/11/25 01:05:15;;;;;;;14.25;5.05;;;;;;;12.54;43.92;102147.59;5052595;28;20102;-67
2021/11/25 01:07:41;;;;;;;17.95;6.53;;;;;;;12.56;43.84;102145.38;5052680;28;20029;-67
2021/11/25 01:10:09;;;;;;;14.70;8.55;;;;;;;12.52;43.84;102147.06;5052563;28;20032;-67
2021/11/25 01:12:36;;;;;;;17.65;10.15;;;;;;;12.49;44.07;102143.00;5052519;28;20021;-67
2021/11/25 01:15:02;;;;;;;12.75;8.75;;;;;;;12.42;43.98;102149.94;5052522;28;20025;-67
2021/11/25 01:17:28;;;;;;;14.45;6.38;;;;;;;12.53;43.91;102147.88;5052518;28;20029;-67
2021/11/25 01:19:54;;;;;;;14.98;4.47;;;;;;;12.56;43.96;102148.13;5052439;28;20021;-67
2021/11/25 01:22:20;;;;;;;10.85;3.85;;;;;;;12.48;44.04;102157.00;5052330;28;20029;-67
2021/11/25 01:24:46;;;;;;;12.02;3.35;;;;;;;12.45;44.19;102146.59;5052373;28;20039;-67
2021/11/25 01:27:11;;;;;;;13.07;3.35;;;;;;;12.48;44.34;102146.84;5051840;28;20029;-67
2021/11/25 01:29:37;;;;;;;11.73;4.68;;;;;;;12.49;44.03;102156.69;5052625;28;20021;-67
2021/11/25 01:32:03;;;;;;;18.00;6.65;;;;;;;12.45;44.30;102158.38;5052313;28;20475;-67
2021/11/25 01:34:29;;;;;;;19.58;10.98;;;;;;;12.61;43.84;102159.03;5052135;28;20032;-67
2021/11/25 01:36:54;;;;;;;29.83;15.00;;;;;;;12.75;43.33;102162.69;5051855;28;20021;-67
2021/11/25 01:39:20;;;;;;;26.08;16.15;;;;;;;12.44;44.10;102175.13;5052216;28;20025;-67
2021/11/25 01:41:47;;;;;;;30.58;17.20;;;;;;;12.45;44.16;102174.00;5052016;28;20095;-67
2021/11/25 01:44:16;;;;;;;31.73;22.60;;;;;;;12.27;44.60;102183.81;5052143;28;20041;-67
2021/11/25 01:46:43;;;;;;;35.35;24.25;;;;;;;12.02;45.27;102179.38;5052027;28;20056;-67
2021/11/25 01:49:08;;;;;;;32.80;22.00;;;;;;;12.01;44.96;102174.16;5052048;28;20513;-67
2021/11/25 01:51:34;;;;;;;29.05;14.85;;;;;;;12.27;44.48;102167.34;5052316;28;20104;-67
2021/11/25 01:54:00;;;;;;;18.63;9.27;;;;;;;12.30;44.33;102176.91;5052113;28;20459;-67
2021/11/25 01:56:25;;;;;;;15.70;5.97;;;;;;;12.19;44.64;102177.03;5052338;28;20115;-67
2021/11/25 01:58:51;;;;;;;11.98;3.78;;;;;;;12.32;44.36;102183.75;5033259;28;20539;-67
2021/11/25 02:01:21;;;;;;;12.38;3.70;;;;;;;12.25;44.43;102186.03;5051172;28;20087;-67
2021/11/25 02:03:49;;;;;;;11.73;3.05;;;;;;;12.23;44.54;102190.94;5034187;28;20024;-67
2021/11/25 02:06:16;;;;;;;11.43;3.53;;;;;;;12.39;44.08;102194.34;5052207;28;20083;-67
2021/11/25 02:08:43;;;;;;;20.50;5.72;;;;;;;12.50;43.76;102191.22;5051970;28;20025;-67
2021/11/25 02:11:08;;;;;;;22.42;14.80;;;;;;;12.50;43.81;102182.19;5051963;28;20044;-67
2021/11/25 02:13:34;;;;;;;28.50;18.08;;;;;;;12.48;43.71;102179.75;5052195;28;20049;-67
2021/11/25 02:16:00;;;;;;;23.15;8.93;;;;;;;12.35;44.01;102166.72;5051911;28;20107;-67
2021/11/25 02:18:26;;;;;;;17.48;6.85;;;;;;;12.17;44.64;102181.16;5051964;28;20029;-67
2021/11/25 02:21:01;;;;;;;16.30;7.93;;;;;;;12.13;44.44;102175.44;5051888;28;20024;-68
2021/11/25 02:23:27;;;;;;;17.48;7.32;;;;;;;12.34;44.01;102173.31;5051895;28;20029;-68
2021/11/25 02:25:54;;;;;;;18.70;4.00;;;;;;;12.29;44.29;102178.84;5051799;28;20083;-67
2021/11/25 02:28:21;;;;;;;17.52;4.65;;;;;;;12.23;44.71;102174.50;5052118;28;20032;-67
2021/11/25 02:30:48;;;;;;;12.77;2.80;;;;;;;12.26;44.52;102178.63;5034206;28;20060;-67
2021/11/25 02:33:15;;;;;;;11.30;2.95;;;;;;;12.48;44.06;102177.00;5051809;28;20443;-67
2021/11/25 02:35:41;;;;;;;18.30;3.63;;;;;;;12.21;44.66;102177.53;5051776;28;20035;-67
2021/11/25 02:38:09;;;;;;;7.03;2.47;;;;;;;12.18;44.59;102182.81;5052007;28;20021;-67
2021/11/25 02:40:43;;;;;;;12.05;2.92;;;;;;;12.38;43.82;102168.06;5053947;28;20056;-67
2021/11/25 02:43:12;;;;;;;10.70;3.10;;;;;;;12.59;43.64;102168.66;5055311;28;20017;-67
2021/11/25 02:45:52;;;;;;;16.58;3.25;;;;;;;12.68;43.42;102166.91;5054987;28;20040;-67
2021/11/25 02:48:21;;;;;;;11.70;2.72;;;;;;;12.39;43.88;102175.16;5055129;28;20024;-67
2021/11/25 02:50:48;;;;;;;10.55;2.53;;;;;;;12.72;43.10;102174.25;5055074;28;20048;-67
2021/11/25 02:53:23;;;;;;;11.75;2.63;;;;;;;12.28;43.84;102190.09;5055100;28;20032;-67
2021/11/25 02:55:49;;;;;;;6.70;2.30;;;;;;;12.59;43.27;102204.31;5054918;28;20025;-67
2021/11/25 02:58:15;;;;;;;10.68;2.03;;;;;;;12.84;42.83;102211.41;5054967;28;20017;-67
2021/11/25 03:00:44;;;;;;;11.82;2.70;;;;;;;12.59;43.23;102207.84;5054844;28;20032;-67
2021/11/25 03:03:14;;;;;;;11.57;3.05;;;;;;;12.69;42.85;102207.72;5054825;28;20025;-67
2021/11/25 03:05:44;;;;;;;9.60;2.55;;;;;;;12.65;42.92;102206.69;5054710;28;20049;-67
2021/11/25 03:08:11;;;;;;;17.17;4.35;;;;;;;12.88;42.54;102209.72;5054802;28;20036;-67
2021/11/25 03:10:40;;;;;;;12.82;3.40;;;;;;;12.89;42.12;102209.44;5054723;28;20041;-67
2021/11/25 03:13:09;;;;;;;16.63;8.70;;;;;;;12.80;42.30;102202.97;5054579;28;20020;-67
2021/11/25 03:15:36;;;;;;;23.52;9.07;;;;;;;12.82;42.17;102219.94;5054573;28;20087;-67
2021/11/25 03:18:04;;;;;;;26.85;10.20;;;;;;;12.81;42.04;102209.25;5054628;28;20021;-67
2021/11/25 03:20:30;;;;;;;14.90;7.45;;;;;;;12.90;41.95;102223.97;5054726;28;20386;-67
2021/11/25 03:22:56;;;;;;;18.95;7.03;;;;;;;12.84;41.92;102219.66;5036620;28;20025;-67
2021/11/25 03:25:22;;;;;;;17.42;7.65;;;;;;;12.60;42.35;102225.94;5036483;28;20083;-67
2021/11/25 03:27:49;;;;;;;17.13;4.53;;;;;;;12.73;41.87;102221.69;5054353;28;20017;-67
2021/11/25 03:30:15;;;;;;;14.25;4.32;;;;;;;12.73;41.82;102218.94;5054398;28;20017;-68
2021/11/25 03:32:40;;;;;;;10.95;3.28;;;;;;;12.64;41.88;102221.53;5054271;28;20032;-67
2021/11/25 03:35:07;;;;;;;12.63;3.50;;;;;;;12.65;41.81;102214.94;5036409;28;20083;-67
2021/11/25 03:37:33;;;;;;;14.63;4.35;;;;;;;12.57;42.01;102217.50;5054289;28;20021;-67
2021/11/25 03:39:59;;;;;;;15.18;4.30;;;;;;;12.39;42.33;102219.88;5054171;28;20021;-67
2021/11/25 03:42:24;;;;;;;16.90;3.80;;;;;;;12.50;42.11;102224.13;5054143;28;20036;-67
2021/11/25 03:44:51;;;;;;;15.25;3.60;;;;;;;12.53;42.04;102214.50;5053853;28;20056;-67
2021/11/25 03:47:17;;;;;;;24.45;4.78;;;;;;;12.47;42.13;102226.66;5036547;28;20029;-68
2021/11/25 03:49:43;;;;;;;8.65;2.70;;;;;;;12.61;41.78;102216.59;5036128;28;20040;-68
2021/11/25 03:52:08;;;;;;;16.15;3.67;;;;;;;12.91;41.17;102220.91;5053465;28;20032;-67
2021/11/25 03:54:34;;;;;;;12.70;2.92;;;;;;;12.77;41.28;102215.34;5053928;28;20171;-68
2021/11/25 03:57:00;;;;;;;12.00;2.97;;;;;;;12.88;41.12;102210.56;5053829;28;20474;-68
2021/11/25 03:59:26;;;;;;;14.75;4.05;;;;;;;12.96;41.19;102203.59;5053767;28;20032;-68
2021/11/25 04:01:51;;;;;;;14.95;3.10;;;;;;;12.70;41.53;102197.63;5054058;28;20021;-67
2021/11/25 04:04:17;;;;;;;14.57;3.03;;;;;;;12.42;42.67;102189.13;5053766;28;20090;-67
2021/11/25 04:06:42;;;;;;;16.45;3.55;;;;;;;12.43;42.71;102187.19;5053658;28;20109;-67
2021/11/25 04:09:08;;;;;;;12.07;2.60;;;;;;;12.44;42.73;102192.38;5053559;28;20037;-67
2021/11/25 04:11:34;;;;;;;11.48;3.15;;;;;;;12.52;42.61;102198.34;5053589;28;20037;-67
2021/11/25 04:14:03;;;;;;;12.88;2.58;;;;;;;12.66;42.20;102186.38;5053781;28;20032;-72
2021/11/25 04:16:29;;;;;;;7.25;2.03;;;;;;;12.83;41.89;102196.06;5053529;28;20087;-67
2021/11/25 04:18:54;;;;;;;15.75;3.47;;;;;;;12.88;41.49;102201.50;5053393;28;20033;-67
2021/11/25 04:21:20;;;;;;;14.10;4.15;;;;;;;12.97;41.56;102207.97;5053380;28;20067;-67
2021/11/25 04:23:46;;;;;;;15.38;4.63;;;;;;;13.02;41.33;102195.00;5053443;28;20032;-67
2021/11/25 04:26:11;;;;;;;10.63;2.53;;;;;;;12.97;41.57;102202.47;5053444;28;20086;-67
2021/11/25 04:28:37;;;;;;;11.15;2.38;;;;;;;12.93;41.65;102206.94;5053587;28;20517;-67
2021/11/25 04:36:32;;;;;;;12.13;4.25;;;;;;;12.90;41.54;102211.06;5053256;28;20034;-67
2021/11/25 04:38:57;;;;;;;14.57;5.05;;;;;;;12.82;41.57;102216.38;5053375;28;20029;-67
2021/11/25 04:41:23;;;;;;;14.05;5.13;;;;;;;12.94;41.45;102214.88;5053028;28;20051;-67
2021/11/25 04:43:49;;;;;;;12.40;3.55;;;;;;;12.87;41.63;102208.09;5052869;28;20081;-67
2021/11/25 04:46:15;;;;;;;14.20;3.35;;;;;;;12.75;41.84;102212.06;5052957;28;20037;-67
2021/11/25 04:48:41;;;;;;;10.55;4.28;;;;;;;12.82;41.57;102210.91;5052890;28;20040;-67
2021/11/25 04:51:06;;;;;;;13.75;4.30;;;;;;;12.82;41.31;102210.91;5052845;28;20033;-67
2021/11/25 04:53:32;;;;;;;16.63;4.65;;;;;;;12.75;41.54;102198.34;5052914;28;20029;-67
2021/11/25 04:55:58;;;;;;;14.38;6.03;;;;;;;12.54;41.89;102198.88;5052724;28;20033;-67
2021/11/25 04:58:23;;;;;;;10.30;3.70;;;;;;;12.57;41.83;102207.34;5052956;28;20029;-68
2021/11/25 05:00:49;;;;;;;11.63;3.42;;;;;;;12.53;41.94;102203.53;5052663;28;20463;-67
2021/11/25 05:03:15;;;;;;;11.48;3.50;;;;;;;12.07;43.24;102209.47;5052284;28;20025;-67
2021/11/25 05:05:41;;;;;;;9.23;2.80;;;;;;;11.88;43.51;102201.13;5047651;28;20155;-67
2021/11/25 05:08:07;;;;;;;7.40;2.83;;;;;;;11.99;43.27;102220.22;5052664;28;20037;-68
2021/11/25 05:10:32;;;;;;;13.50;3.25;;;;;;;12.15;43.08;102221.72;5052841;28;20360;-67
2021/11/25 05:12:58;;;;;;;6.53;2.33;;;;;;;12.16;42.85;102202.25;5052790;28;20459;-68
2021/11/25 05:15:24;;;;;;;15.02;4.32;;;;;;;12.11;43.18;102206.97;5052446;28;20404;-68
2021/11/25 05:17:51;;;;;;;15.15;4.15;;;;;;;12.34;42.53;102227.31;5052331;28;20024;-67
2021/11/25 05:20:17;;;;;;;12.60;4.80;;;;;;;12.35;42.60;102240.72;5052765;28;20043;-67
2021/11/25 05:22:43;;;;;;;10.48;3.38;;;;;;;12.22;42.90;102241.38;5052450;28;20083;-67
2021/11/25 05:25:11;;;;;;;12.07;2.55;;;;;;;12.38;42.58;102239.31;5052334;28;20086;-68
2021/11/25 05:27:37;;;;;;;4.97;2.75;;;;;;;12.36;42.82;102249.75;5052254;28;20041;-67
2021/11/25 05:30:05;;;;;;;14.93;3.67;;;;;;;12.50;42.36;102245.25;5052161;28;20025;-67
2021/11/25 05:32:31;;;;;;;14.25;3.90;;;;;;;12.44;42.52;102238.16;5050807;28;20479;-67
2021/11/25 05:34:56;;;;;;;9.27;3.28;;;;;;;12.33;42.60;102237.47;5052119;28;20068;-67
2021/11/25 05:37:22;;;;;;;9.27;3.30;;;;;;;12.45;42.40;102235.13;5052481;28;20368;-68
2021/11/25 05:39:48;;;;;;;8.82;2.58;;;;;;;11.90;43.87;102240.00;5052382;28;20033;-67
2021/11/25 05:42:13;;;;;;;12.18;2.08;;;;;;;12.20;43.31;102238.13;5051792;28;20043;-67
2021/11/25 05:44:39;;;;;;;11.85;2.55;;;;;;;12.38;42.71;102244.81;5033688;28;20092;-68
2021/11/25 05:47:05;;;;;;;11.68;2.95;;;;;;;12.39;42.54;102255.50;5051606;28;20044;-67
2021/11/25 05:49:32;;;;;;;9.02;2.95;;;;;;;12.49;42.46;102240.88;5051504;28;20033;-67
2021/11/25 05:51:57;;;;;;;14.27;3.85;;;;;;;12.47;42.43;102251.31;5052261;28;20028;-74
2021/11/25 05:54:24;;;;;;;8.68;1.70;;;;;;;12.41;42.71;102260.69;5052046;28;20560;-67
2021/11/25 05:56:49;;;;;;;7.82;1.80;;;;;;;12.48;42.45;102261.19;5052171;28;20048;-67
2021/11/25 05:59:15;;;;;;;7.72;2.13;;;;;;;12.45;42.67;102254.31;5052030;28;20463;-67
2021/11/25 06:01:41;;;;;;;7.53;1.92;;;;;;;12.56;42.29;102262.47;5052011;28;20083;-67
2021/11/25 06:04:06;;;;;;;13.45;2.78;;;;;;;12.64;42.13;102256.34;5051940;28;20068;-67
2021/11/25 06:06:32;;;;;;;10.00;2.53;;;;;;;12.55;42.30;102253.44;5052060;28;20391;-67
2021/11/25 06:08:57;;;;;;;10.45;2.03;;;;;;;12.55;42.28;102258.09;5052206;28;20021;-67
2021/11/25 06:11:23;;;;;;;8.85;2.33;;;;;;;12.60;42.28;102256.09;5034178;28;20574;-67
2021/11/25 06:13:49;;;;;;;8.57;2.03;;;;;;;12.63;42.07;102262.94;5053318;28;20064;-67
2021/11/25 06:16:15;;;;;;;10.88;2.55;;;;;;;12.44;42.76;102260.09;5055796;28;20029;-68
2021/11/25 06:18:41;;;;;;;11.38;4.53;;;;;;;12.51;42.42;102266.06;5055762;28;20104;-67
2021/11/25 06:21:07;;;;;;;23.35;10.15;;;;;;;12.48;42.23;102272.13;5055585;28;20470;-67
2021/11/25 06:23:33;;;;;;;18.25;11.98;;;;;;;12.57;42.37;102273.16;5055542;28;20067;-67
2021/11/25 06:25:59;;;;;;;17.35;10.15;;;;;;;12.29;42.85;102262.97;5055734;28;20039;-67
2021/11/25 06:28:24;;;;;;;12.90;7.07;;;;;;;12.24;43.28;102263.84;5055571;28;20037;-67
2021/11/25 06:30:50;;;;;;;13.73;5.13;;;;;;;12.60;42.38;102249.81;5055538;28;20029;-67
2021/11/25 06:33:16;;;;;;;12.57;4.57;;;;;;;12.59;42.52;102256.41;5055482;28;20580;-67
2021/11/25 06:35:42;;;;;;;9.80;3.22;;;;;;;12.54;42.40;102254.50;5055725;28;20108;-67
2021/11/25 06:38:07;;;;;;;12.80;3.83;;;;;;;12.57;42.43;102253.94;5055293;28;20491;-67
2021/11/25 06:40:34;;;;;;;19.17;4.95;;;;;;;12.53;42.65;102266.59;5055314;28;20025;-67
2021/11/25 06:43:04;;;;;;;14.18;6.15;;;;;;;12.63;42.35;102257.47;5037362;28;20116;-67
2021/11/25 06:45:29;;;;;;;;;;;;;;;12.57;42.52;102248.47;5055420;28;20487;-68
2021/11/25 06:47:55;;;;;;;11.40;4.05;;;;;;;12.47;42.72;102259.53;5055123;28;19919;-67
2021/11/25 06:50:23;;;;;;;12.57;4.15;;;;;;;12.59;42.54;102261.88;5055141;28;20036;-67
2021/11/25 06:52:49;;;;;;;12.90;4.07;;;;;;;12.43;42.68;102264.78;5055230;28;20131;-68
2021/11/25 06:55:16;;;;;;;13.27;3.42;;;;;;;12.59;42.46;102265.44;5055264;28;20025;-69
2021/11/25 06:57:47;;;;;;;10.90;3.30;;;;;;;12.50;42.60;102268.00;5055008;28;20029;-67
2021/11/25 07:00:15;;;;;;;12.98;4.25;;;;;;;12.62;42.37;102270.38;5055051;28;20025;-68
2021/11/25 07:02:41;;;;;;;13.60;5.20;;;;;;;12.45;42.40;102264.47;5055061;28;20025;-67
2021/11/25 07:05:08;;;;;;;12.85;3.88;;;;;;;12.63;42.29;102269.25;5054875;28;20033;-68
2021/11/25 07:07:34;;;;;;;12.65;2.90;;;;;;;12.63;42.33;102269.25;5054869;28;20029;-68
2021/11/25 07:10:00;;;;;;;11.52;2.90;;;;;;;12.67;42.05;102267.56;5055041;28;20021;-67
2021/11/25 07:12:25;;;;;;;12.32;3.33;;;;;;;12.65;42.04;102268.97;5045475;28;20031;-73
2021/11/25 07:14:51;;;;;;;9.90;3.85;;;;;;;12.62;42.21;102273.09;5052221;28;20029;-68
2021/11/25 07:17:17;;;;;;;11.95;4.10;;;;;;;12.67;41.96;102278.53;5054567;28;20096;-67
2021/11/25 07:19:42;;;;;;;13.77;6.07;;;;;;;12.71;41.85;102290.56;5054787;28;20060;-68
2021/11/25 07:22:08;;;;;;;13.68;5.65;;;;;;;12.71;41.90;102292.50;5054571;28;20527;-68
2021/11/25 07:24:33;;;;;;;17.02;6.97;;;;;;;12.67;41.80;102297.72;5050553;28;20029;-67
2021/11/25 07:26:59;;;;;;;19.92;7.18;;;;;;;12.63;41.99;102309.56;5038694;28;20017;-68
2021/11/25 07:29:25;;;;;;;16.45;5.85;;;;;;;12.62;42.03;102306.00;5038415;28;20033;-70
2021/11/25 07:31:51;;;;;;;12.88;4.47;;;;;;;12.56;42.17;102307.16;5037995;28;20039;-71
2021/11/25 07:34:17;;;;;;;11.93;4.63;;;;;;;12.59;41.98;102309.31;5037112;28;20799;-68
2021/11/25 07:36:42;;;;;;;13.93;3.47;;;;;;;12.39;42.52;102317.72;5038086;28;20044;-68
2021/11/25 07:39:08;;;;;;;12.80;2.40;;;;;;;12.49;42.34;102320.38;5038607;28;20434;-68
2021/11/25 07:41:37;;;;;;;8.65;2.47;;;;;;;12.36;42.87;102315.56;5037654;28;20640;-68
2021/11/25 07:44:03;;;;;;;10.55;2.50;;;;;;;12.31;42.90;102321.06;5048654;28;20048;-68
2021/11/25 07:46:29;;;;;;;12.85;2.85;;;;;;;12.52;42.39;102332.69;5054135;28;20033;-67
2021/11/25 07:48:55;;;;;;;14.23;2.67;;;;;;;12.53;42.43;102332.41;5054159;28;20029;-68
2021/11/25 07:51:21;;;;;;;17.90;3.72;;;;;;;12.62;42.04;102343.56;5054219;28;20082;-66
2021/11/25 07:53:48;;;;;;;5.70;1.92;;;;;;;12.59;42.25;102350.44;5053858;28;20190;-67
2021/11/25 07:56:13;;;;;;;12.15;4.03;;;;;;;12.58;42.23;102348.00;5035859;28;20483;-66
2021/11/25 07:58:39;;;;;;;17.40;3.20;;;;;;;12.58;42.06;102332.34;5047428;28;20030;-67
2021/11/25 08:01:04;;;;;;;12.98;2.53;;;;;;;12.45;42.47;102355.75;5019827;28;20109;-67
2021/11/25 08:03:30;;;;;;;10.43;2.88;;;;;;;12.55;42.19;102346.66;5019437;28;20028;-67
2021/11/25 08:05:56;;;;;;;10.10;3.40;;;;;;;12.54;42.20;102355.97;5041511;28;20032;-66
2021/11/25 08:08:21;;;;;;;9.65;3.30;;;;;;;12.59;42.08;102349.63;5053568;28;20483;-66
2021/11/25 08:10:47;;;;;;;12.98;3.33;;;;;;;12.49;42.24;102356.03;5052904;28;20028;-66
2021/11/25 08:13:12;;;;;;;15.80;4.10;;;;;;;12.53;42.33;102359.81;5053527;28;20394;-66
2021/11/25 08:15:38;;;;;;;12.63;5.07;;;;;;;12.56;42.21;102356.50;5053519;28;20031;-67
2021/11/25 08:18:05;;;;;;;14.90;4.85;;;;;;;12.48;42.44;102359.88;5052735;28;20033;-68
2021/11/25 08:20:30;;;;;;;13.00;4.75;;;;;;;12.54;42.29;102357.88;5053148;28;20040;-67
2021/11/25 08:22:56;;;;;;;16.60;4.43;;;;;;;12.52;42.42;102355.44;5035295;28;20033;-67
2021/11/25 08:25:23;;;;;;;14.80;4.35;;;;;;;12.55;42.38;102349.41;5053065;28;20035;-67
2021/11/25 08:27:51;;;;;;;16.80;3.20;;;;;;;12.67;42.02;102346.25;5052468;28;20051;-66
2021/11/25 08:30:17;;;;;;;8.90;3.53;;;;;;;12.58;42.23;102340.59;5052779;28;20028;-67
2021/11/25 08:32:43;;;;;;;19.33;4.55;;;;;;;12.20;43.13;102337.59;5052529;28;20021;-67
2021/11/25 08:35:10;;;;;;;12.88;4.30;;;;;;;12.23;43.36;102339.75;5052674;28;20025;-67
2021/11/25 08:37:38;;;;;;;14.32;6.47;;;;;;;12.29;42.86;102339.72;5049333;28;20036;-67
2021/11/25 08:40:05;;;;;;;17.88;6.28;;;;;;;12.25;42.95;102333.19;5036463;28;20415;-68
2021/11/25 08:42:31;;;;;;;16.17;5.43;;;;;;;12.29;42.87;102334.25;5032106;28;20025;-67
2021/11/25 08:44:57;;;;;;;13.48;3.35;;;;;;;12.18;43.08;102337.06;5032818;28;20056;-67
2021/11/25 08:47:22;;;;;;;9.15;2.50;;;;;;;12.04;43.40;102341.53;5033194;28;20021;-67
2021/11/25 08:49:49;;;;;;;16.13;3.03;;;;;;;12.08;43.35;102344.53;5014874;28;20021;-67
2021/11/25 08:52:14;;;;;;;14.38;2.97;;;;;;;12.05;43.52;102348.66;5033142;28;20082;-67
2021/11/25 08:54:40;;;;;;;12.23;3.72;;;;;;;12.13;43.34;102341.75;5032805;28;20535;-67
2021/11/25 08:57:06;;;;;;;11.27;3.25;;;;;;;12.25;43.19;102341.41;5032849;28;20040;-67
2021/11/25 08:59:31;;;;;;;14.57;3.22;;;;;;;12.27;43.07;102350.16;5032516;28;20518;-67
2021/11/25 09:01:57;;;;;;;16.35;4.18;;;;;;;12.21;43.34;102355.66;5032794;28;20029;-67
2021/11/25 09:04:22;;;;;;;13.65;4.55;;;;;;;12.33;43.28;102354.50;5032565;28;20025;-67
2021/11/25 09:06:49;;;;;;;18.10;4.30;;;;;;;12.40;42.89;102353.09;5032980;28;20050;-67
2021/11/25 09:09:15;;;;;;;10.35;4.78;;;;;;;12.34;43.13;102356.97;5015323;28;20452;-69
2021/11/25 09:11:42;;;;;;;16.65;2.92;;;;;;;12.38;43.14;102359.94;5032517;28;20407;-67
2021/11/25 09:14:08;;;;;;;9.52;2.70;;;;;;;12.43;43.12;102355.25;5032554;28;20041;-67
2021/11/25 09:16:33;;;;;;;12.95;3.50;;;;;;;12.44;43.23;102361.53;5032535;28;20107;-67
2021/11/25 09:19:00;;;;;;;8.55;3.05;;;;;;;12.53;43.07;102357.06;5032289;28;20025;-66
2021/11/25 09:21:29;;;;;;;11.82;2.53;;;;;;;12.57;42.96;102351.84;5032387;28;20494;-66
2021/11/25 09:23:55;;;;;;;14.75;4.10;;;;;;;12.69;42.68;102355.84;5032446;28;20460;-66
2021/11/25 09:26:22;;;;;;;11.98;2.50;;;;;;;12.75;42.85;102349.19;5032535;28;20116;-66
2021/11/25 09:28:48;;;;;;;13.23;3.50;;;;;;;12.80;42.84;102358.50;5032341;28;20025;-66
2021/11/25 09:31:17;;;;;;;15.52;5.70;;;;;;;12.67;43.18;102357.22;5032306;28;20041;-66
2021/11/25 09:33:43;;;;;;;13.73;4.73;;;;;;;12.91;42.61;102360.03;5032380;28;20026;-66
2021/11/25 09:36:09;;;;;;;19.92;6.03;;;;;;;12.94;42.98;102356.72;5032615;28;20152;-66
2021/11/25 09:38:34;;;;;;;13.60;5.72;;;;;;;12.99;42.77;102365.69;5032358;28;20483;-66
2021/11/25 09:41:01;;;;;;;16.60;7.32;;;;;;;13.11;42.64;102367.25;5032361;28;20113;-66
2021/11/25 09:43:27;;;;;;;20.95;5.70;;;;;;;13.26;42.61;102375.34;5014300;28;20029;-67
2021/11/25 09:45:54;;;;;;;16.52;5.05;;;;;;;13.38;42.28;102359.28;5032436;28;20507;-67
2021/11/25 09:48:22;;;;;;;14.80;4.55;;;;;;;13.44;42.27;102368.28;5032451;28;20037;-67
2021/11/25 09:50:50;;;;;;;12.75;6.30;;;;;;;13.50;42.17;102364.34;5035990;28;20040;-67
2021/11/25 09:53:19;;;;;;;22.90;7.28;;;;;;;13.53;42.27;102372.03;5037354;28;20037;-72
2021/11/25 09:55:48;;;;;;;34.30;16.02;;;;;;;13.49;42.54;102382.75;5056146;28;20037;-67
2021/11/25 09:58:17;;;;;;;16.83;8.07;;;;;;;13.63;42.20;102382.06;5052817;28;20049;-76
2021/11/25 10:00:46;;;;;;;16.33;5.05;;;;;;;13.69;42.19;102373.47;5050999;28;20074;-82
2021/11/25 10:03:15;;;;;;;16.05;3.97;;;;;;;13.85;41.95;102371.34;5044359;28;20044;-74
2021/11/25 10:05:44;;;;;;;9.85;3.42;;;;;;;13.93;41.93;102372.59;5045613;28;20053;-80
2021/11/25 10:08:26;;;;;;;10.67;3.10;;;;;;;13.87;41.57;102380.09;5052438;28;20025;-67
2021/11/25 10:11:10;;;;;;;12.15;3.22;;;;;;;14.07;41.63;102373.50;5056344;28;20040;-67
2021/11/25 10:13:42;;;;;;;12.32;3.10;;;;;;;14.08;41.58;102369.63;5053671;28;20119;-67
2021/11/25 10:16:11;;;;;;;17.02;5.72;;;;;;;14.04;41.67;102380.41;5046256;28;20082;-67
2021/11/25 10:18:38;;;;;;;10.77;4.50;;;;;;;14.11;41.61;102380.03;5045227;28;20037;-67
2021/11/25 10:21:16;;;;;;;15.45;5.20;;;;;;;14.06;41.50;102375.44;5043823;28;20104;-71
2021/11/25 10:23:44;;;;;;;15.27;5.97;;;;;;;14.28;41.16;102377.59;5045913;28;20025;-67
2021/11/25 10:26:23;;;;;;;16.88;4.60;;;;;;;14.35;40.81;102380.75;5049895;28;20032;-67
2021/11/25 10:29:06;;;;;;;16.48;5.72;;;;;;;14.40;40.95;102383.44;5053037;28;20441;-68
2021/11/25 10:31:37;;;;;;;8.70;2.90;;;;;;;14.52;40.78;102384.97;5043457;28;20108;-80
2021/11/25 10:34:16;;;;;;;13.48;4.10;;;;;;;14.32;40.64;102389.63;5042115;28;20029;-82
2021/11/25 10:41:56;;;;;;;14.20;5.30;;;;;;;14.75;40.40;102375.75;5035408;28;20383;-68
2021/11/25 10:44:50;;;;;;;22.17;6.75;;;;;;;14.65;40.55;102378.66;5035074;28;20048;-67
2021/11/25 10:47:22;;;;;;;15.70;3.95;;;;;;;14.77;40.53;102387.28;5031872;28;20068;-67
2021/11/25 10:49:52;;;;;;;15.25;4.55;;;;;;;14.40;40.89;102386.19;5035229;28;20048;-67
2021/11/25 10:52:20;;;;;;;;;;;;;;;14.74;40.26;102387.88;5017893;28;20075;-66
2021/11/25 10:54:52;;;;;;;44.03;15.88;;;;;;;14.48;40.37;102390.22;5035065;28;19913;-66
2021/11/25 10:57:20;;;;;;;13.70;3.88;;;;;;;14.79;40.22;102385.03;5034894;28;20025;-66
2021/11/25 10:59:49;;;;;;;14.85;4.93;;;;;;;14.83;40.15;102372.31;5034527;28;20088;-66
2021/11/25 11:02:30;;;;;;;11.60;4.53;;;;;;;14.94;40.21;102381.19;5034528;28;20117;-67
2021/11/25 11:04:59;;;;;;;11.40;3.30;;;;;;;15.12;39.83;102374.00;5035167;28;20033;-66
2021/11/25 11:07:25;;;;;;;10.80;4.65;;;;;;;15.19;39.75;102371.66;5034785;28;20037;-66
2021/11/25 11:09:51;;;;;;;12.93;4.68;;;;;;;14.96;40.06;102366.03;5035054;28;20047;-67
2021/11/25 11:12:30;;;;;;;13.45;5.78;;;;;;;14.90;40.14;102364.47;5034597;28;20033;-66
2021/11/25 11:15:01;;;;;;;16.77;3.30;;;;;;;15.01;39.97;102358.78;5035004;28;20056;-67
2021/11/25 11:17:46;;;;;;;14.68;3.65;;;;;;;14.99;40.40;102354.41;5036060;28;20166;-68
2021/11/25 11:20:20;;;;;;;15.48;4.25;;;;;;;15.07;40.05;102349.31;5019842;28;20040;-67
2021/11/25 11:22:51;;;;;;;17.15;3.22;;;;;;;15.21;39.81;102345.44;5050490;28;20028;-67
2021/11/25 11:25:20;;;;;;;12.85;3.25;;;;;;;15.45;39.62;102327.91;5054473;28;20553;-68
2021/11/25 11:27:46;;;;;;;19.52;3.60;;;;;;;15.55;39.73;102314.72;5054476;28;20029;-67